Time;durP1;ratioP1;P1;durP2;ratioP2;P2;SDS_P1;SDS_P2;PMS_P1;PMS_P2;Temp;Humidity;BMP_temperature;BMP_pressure;BME280_temperature;BME280_humidity;BME280_pressure;Samples;Min_cycle;Max_cycle;Signal;HPM_P1;HPM_P2
2023/08/26 00:01:46;;;;;;;2.58;2.05;;;;;;;24.14;62.61;99860.09;4604291;27;20024;-66
2023/08/26 00:03:57;;;;;;;2.67;2.03;;;;;;;24.15;62.50;99861.72;4603155;27;20027;-66
2023/08/26 00:06:07;;;;;;;3.28;2.08;;;;;;;24.10;62.35;99847.72;4614164;27;20400;-66
2023/08/26 00:08:18;;;;;;;2.22;2.03;;;;;;;24.09;62.30;99837.44;4604463;27;20042;-66
2023/08/26 00:10:28;;;;;;;2.55;2.05;;;;;;;24.12;61.88;99850.22;4602157;27;20361;-66
2023/08/26 00:12:38;;;;;;;2.45;2.08;;;;;;;24.13;62.17;99846.09;4604401;27;20035;-66
2023/08/26 00:14:49;;;;;;;2.10;1.90;;;;;;;24.15;62.05;99847.31;4603263;27;20039;-66
2023/08/26 00:16:59;;;;;;;3.05;2.28;;;;;;;24.13;61.88;99846.91;4604256;27;20798;-66
2023/08/26 00:19:10;;;;;;;2.15;1.95;;;;;;;24.14;61.84;99847.72;4603071;27;20025;-66
2023/08/26 00:21:21;;;;;;;3.10;2.30;;;;;;;24.13;62.04;99855.56;4603861;27;20031;-66
2023/08/26 00:23:32;;;;;;;2.70;2.30;;;;;;;24.14;61.65;99865.88;4604532;27;20089;-65
2023/08/26 00:25:42;;;;;;;2.95;2.60;;;;;;;24.12;61.48;99865.44;4604719;27;20024;-66
2023/08/26 00:27:52;;;;;;;3.88;2.60;;;;;;;24.14;61.92;99867.91;4603992;27;20959;-66
2023/08/26 00:30:04;;;;;;;3.90;2.65;;;;;;;24.10;61.82;99864.22;4603705;27;20065;-66
2023/08/26 00:32:14;;;;;;;3.33;2.63;;;;;;;24.10;61.61;99870.78;4603325;27;20066;-66
2023/08/26 00:34:25;;;;;;;4.20;3.00;;;;;;;24.11;61.49;99883.97;4602778;27;20538;-66
2023/08/26 00:36:36;;;;;;;3.40;2.90;;;;;;;24.12;61.22;99879.84;4605786;27;20114;-66
2023/08/26 00:38:46;;;;;;;4.85;3.20;;;;;;;24.07;61.36;99870.78;4602943;27;20031;-66
2023/08/26 00:40:57;;;;;;;4.28;3.08;;;;;;;24.09;61.42;99874.91;4622128;27;20032;-66
2023/08/26 00:43:11;;;;;;;4.07;3.10;;;;;;;24.13;61.56;99875.75;4607929;27;20051;-66
2023/08/26 00:45:22;;;;;;;4.32;3.00;;;;;;;24.07;61.53;99859.25;4608080;27;20035;-66
2023/08/26 00:47:33;;;;;;;3.40;2.90;;;;;;;24.10;61.17;99856.38;4608655;27;20027;-66
2023/08/26 00:49:43;;;;;;;4.22;3.17;;;;;;;24.12;61.16;99853.09;4610042;27;20437;-66
2023/08/26 00:51:55;;;;;;;3.90;3.20;;;;;;;24.06;61.38;99838.25;4608455;27;20119;-66
2023/08/26 00:54:07;;;;;;;3.58;2.90;;;;;;;24.06;60.97;99858.44;4610311;27;20047;-66
2023/08/26 00:56:19;;;;;;;3.50;2.95;;;;;;;24.11;61.46;99872.44;4609417;27;20067;-66
2023/08/26 00:58:32;;;;;;;4.88;3.50;;;;;;;24.07;61.49;99871.59;4609029;27;20154;-66
2023/08/26 01:00:44;;;;;;;3.95;3.20;;;;;;;24.06;61.51;99864.19;4598002;27;20090;-65
2023/08/26 01:02:55;;;;;;;3.92;3.10;;;;;;;24.10;61.50;99870.78;4610599;27;20400;-66
2023/08/26 01:05:07;;;;;;;4.13;3.30;;;;;;;24.10;61.51;99870.78;4623000;27;20030;-66
2023/08/26 01:07:18;;;;;;;4.90;3.28;;;;;;;24.10;61.16;99867.91;4608168;27;20031;-66
2023/08/26 01:09:28;;;;;;;4.25;3.50;;;;;;;24.08;61.20;99855.97;4621603;27;20069;-66
2023/08/26 01:12:04;;;;;;;4.55;3.13;;;;;;;24.11;61.38;99866.69;4605874;27;20465;-65
2023/08/26 01:14:37;;;;;;;4.57;3.70;;;;;;;24.09;61.35;99874.91;4622593;27;20038;-67
2023/08/26 01:16:48;;;;;;;4.38;3.17;;;;;;;24.07;61.03;99867.91;4597415;27;20059;-66
2023/08/26 01:19:00;;;;;;;3.95;3.15;;;;;;;24.11;61.08;99895.50;4604329;27;20050;-67
2023/08/26 01:21:12;;;;;;;4.55;3.67;;;;;;;24.08;60.91;99870.38;4605343;27;20197;-66
2023/08/26 01:23:43;;;;;;;3.83;2.83;;;;;;;24.10;61.23;99888.06;4604408;27;20040;-66
2023/08/26 01:25:54;;;;;;;4.07;3.00;;;;;;;24.08;60.88;99890.56;4607664;27;20046;-66
2023/08/26 01:28:05;;;;;;;4.18;3.10;;;;;;;24.06;61.11;99887.25;4614753;27;20118;-66
2023/08/26 01:30:16;;;;;;;4.38;3.25;;;;;;;24.09;60.78;99903.75;4621698;27;20219;-66
2023/08/26 01:32:27;;;;;;;4.63;3.25;;;;;;;24.11;60.82;99903.34;4622347;27;21234;-66
2023/08/26 01:34:38;;;;;;;4.47;3.25;;;;;;;24.07;60.58;99894.66;4603944;27;20078;-66
2023/08/26 01:36:51;;;;;;;3.70;2.80;;;;;;;24.09;60.68;99897.13;4605222;27;20346;-66
2023/08/26 01:39:03;;;;;;;4.45;3.30;;;;;;;24.08;60.38;99904.97;4605414;27;20035;-66
2023/08/26 01:41:18;;;;;;;4.30;3.63;;;;;;;24.08;60.30;99907.03;4611078;27;20028;-67
2023/08/26 01:43:30;;;;;;;4.00;3.55;;;;;;;24.09;60.19;99915.28;4615130;27;20039;-67
2023/08/26 01:45:40;;;;;;;3.97;3.30;;;;;;;24.05;60.37;99902.09;4616097;27;20080;-67
2023/08/26 01:47:51;;;;;;;4.50;3.42;;;;;;;24.06;60.23;99907.44;4614717;27;20115;-67
2023/08/26 01:50:01;;;;;;;4.05;3.30;;;;;;;24.08;60.34;99890.56;4614342;27;20573;-66
2023/08/26 01:52:12;;;;;;;6.32;4.20;;;;;;;24.08;60.10;99890.56;4603565;27;20484;-66
2023/08/26 01:54:22;;;;;;;3.65;2.97;;;;;;;24.06;60.21;99895.91;4605062;27;20041;-67
2023/08/26 01:56:33;;;;;;;3.85;3.42;;;;;;;24.02;59.83;99892.19;4614479;27;20128;-66
2023/08/26 01:58:44;;;;;;;4.25;3.45;;;;;;;24.06;59.84;99907.44;4613652;27;20033;-66
2023/08/26 02:00:54;;;;;;;5.05;3.47;;;;;;;24.07;60.01;99905.41;4608458;27;20037;-67
2023/08/26 02:03:05;;;;;;;4.70;3.63;;;;;;;24.06;59.84;99901.69;4613781;27;20182;-67
2023/08/26 02:05:15;;;;;;;4.43;3.42;;;;;;;24.07;60.22;99905.41;4611358;27;20192;-66
2023/08/26 02:07:26;;;;;;;4.25;3.08;;;;;;;24.06;60.18;99910.31;4606357;27;20032;-66
2023/08/26 02:09:36;;;;;;;4.47;3.30;;;;;;;24.07;60.40;99914.84;4614140;27;20921;-66
2023/08/26 02:11:46;;;;;;;4.03;3.40;;;;;;;24.07;61.01;99906.19;4613094;27;20062;-67
2023/08/26 02:13:57;;;;;;;3.80;3.30;;;;;;;24.02;60.74;99906.63;4610573;27;20121;-66
2023/08/26 02:16:07;;;;;;;4.22;3.30;;;;;;;24.05;60.40;99917.34;4604689;27;20039;-66
2023/08/26 02:18:18;;;;;;;4.20;3.28;;;;;;;24.05;60.49;99923.09;4613636;27;20400;-66
2023/08/26 02:20:28;;;;;;;3.83;3.17;;;;;;;24.06;60.55;99930.50;4605654;27;20679;-66
2023/08/26 02:22:39;;;;;;;3.85;3.30;;;;;;;24.04;60.57;99926.38;4614193;27;20039;-66
2023/08/26 02:24:49;;;;;;;4.53;3.72;;;;;;;24.05;60.40;99928.88;4606092;27;20038;-66
2023/08/26 02:27:00;;;;;;;5.18;3.83;;;;;;;24.06;60.57;99923.91;4606388;27;20511;-66
2023/08/26 02:29:10;;;;;;;4.35;3.42;;;;;;;24.02;60.45;99923.91;4605042;27;20059;-66
2023/08/26 02:31:21;;;;;;;4.68;3.97;;;;;;;24.05;60.55;99920.22;4604280;27;20403;-66
2023/08/26 02:33:32;;;;;;;4.22;3.63;;;;;;;24.05;60.53;99925.97;4611332;27;20039;-66
2023/08/26 02:35:47;;;;;;;5.00;3.88;;;;;;;24.05;60.34;99920.22;4589164;27;20116;-66
2023/08/26 02:37:58;;;;;;;3.95;3.45;;;;;;;24.01;60.71;99915.66;4615092;27;20108;-66
2023/08/26 02:40:09;;;;;;;4.05;3.13;;;;;;;24.07;61.00;99919.81;4594591;27;20044;-66
2023/08/26 02:42:20;;;;;;;4.65;3.88;;;;;;;24.04;60.63;99912.78;4620818;27;20019;-66
2023/08/26 02:44:31;;;;;;;4.45;3.97;;;;;;;23.93;60.63;99894.59;4621921;27;20204;-66
2023/08/26 02:46:41;;;;;;;4.75;3.60;;;;;;;24.03;60.53;99911.13;4602608;27;20039;-69
2023/08/26 02:48:53;;;;;;;4.90;4.03;;;;;;;24.06;60.87;99915.25;4605831;27;20536;-66
2023/08/26 02:51:04;;;;;;;4.50;3.35;;;;;;;23.96;60.42;99898.75;4606742;27;20100;-66
2023/08/26 02:53:15;;;;;;;3.38;2.92;;;;;;;24.03;60.15;99910.31;4606832;27;20042;-66
2023/08/26 02:55:26;;;;;;;4.90;4.07;;;;;;;24.07;60.43;99914.84;4606752;27;20088;-66
2023/08/26 02:57:36;;;;;;;4.72;3.80;;;;;;;24.04;60.05;99918.53;4610315;27;20504;-66
2023/08/26 02:59:47;;;;;;;4.22;3.50;;;;;;;24.07;60.10;99916.94;4610729;27;20483;-66
2023/08/26 03:02:03;;;;;;;4.43;3.58;;;;;;;24.04;60.27;99912.78;4604095;27;20030;-66
2023/08/26 03:04:13;;;;;;;4.70;3.88;;;;;;;23.98;59.92;99914.41;4602149;27;20032;-66
2023/08/26 03:06:24;;;;;;;4.38;3.30;;;;;;;24.04;59.86;99912.78;4609069;27;20039;-66
2023/08/26 03:08:34;;;;;;;3.80;3.22;;;;;;;24.06;59.71;99918.97;4602464;27;20036;-66
2023/08/26 03:11:04;;;;;;;3.45;2.85;;;;;;;24.09;60.20;99923.91;4603814;27;20789;-66
2023/08/26 03:13:15;;;;;;;4.32;3.08;;;;;;;24.10;60.04;99921.88;4605239;27;21012;-66
2023/08/26 03:15:29;;;;;;;3.28;2.47;;;;;;;24.09;60.00;99918.16;4601974;27;20142;-66
2023/08/26 03:17:40;;;;;;;5.70;4.30;;;;;;;24.06;59.58;99927.63;4605502;27;20032;-66
2023/08/26 03:19:50;;;;;;;5.22;4.22;;;;;;;24.06;59.23;99927.63;4602741;27;20073;-66
2023/08/26 03:22:01;;;;;;;4.50;3.90;;;;;;;24.06;59.29;99927.63;4605663;27;20491;-67
2023/08/26 03:24:16;;;;;;;3.90;3.30;;;;;;;24.04;59.24;99935.84;4606056;27;20041;-66
2023/08/26 03:26:27;;;;;;;4.20;3.78;;;;;;;24.04;59.12;99938.72;4612942;27;20024;-66
2023/08/26 03:28:37;;;;;;;4.38;3.53;;;;;;;24.04;59.23;99932.97;4614159;27;20476;-66
2023/08/26 03:30:51;;;;;;;5.25;3.30;;;;;;;24.03;59.30;99939.97;4604481;27;20116;-66
2023/08/26 03:33:02;;;;;;;5.13;4.13;;;;;;;24.03;58.89;99945.75;4604993;27;20100;-66
2023/08/26 03:35:13;;;;;;;4.57;3.83;;;;;;;24.03;59.00;99948.63;4603767;27;20027;-66
2023/08/26 03:37:24;;;;;;;3.78;2.88;;;;;;;24.04;59.74;99940.81;4606023;27;20108;-66
2023/08/26 03:39:35;;;;;;;4.65;3.97;;;;;;;24.03;59.15;99945.75;4603773;27;20030;-66
2023/08/26 03:41:45;;;;;;;3.60;3.25;;;;;;;24.00;59.27;99935.03;4603328;27;20905;-66
2023/08/26 03:43:56;;;;;;;5.20;4.10;;;;;;;24.00;59.18;99934.19;4612536;27;20035;-66
2023/08/26 03:46:07;;;;;;;5.07;3.60;;;;;;;24.02;58.95;99938.34;4603774;27;20035;-66
2023/08/26 03:48:17;;;;;;;4.35;3.90;;;;;;;24.02;58.91;99944.09;4604376;27;20023;-67
2023/08/26 03:50:28;;;;;;;4.85;3.92;;;;;;;24.00;59.11;99943.66;4612592;27;20095;-66
2023/08/26 03:52:38;;;;;;;5.15;4.15;;;;;;;24.02;59.08;99946.97;4612542;27;20118;-65
2023/08/26 03:54:49;;;;;;;4.55;3.78;;;;;;;24.00;58.91;99935.03;4604221;27;20050;-66
2023/08/26 03:56:59;;;;;;;4.32;3.72;;;;;;;24.01;58.94;99936.66;4603698;27;20923;-66
2023/08/26 03:59:10;;;;;;;4.75;3.28;;;;;;;24.01;58.87;99936.66;4586036;27;20412;-66
2023/08/26 04:01:20;;;;;;;2.60;2.40;;;;;;;24.07;58.66;99946.56;4606216;27;20035;-66
2023/08/26 04:03:32;;;;;;;2.70;2.30;;;;;;;24.07;58.73;99937.09;4603748;27;20030;-66
2023/08/26 04:05:43;;;;;;;2.40;2.10;;;;;;;24.11;58.84;99940.81;4602658;27;20032;-66
2023/08/26 04:07:53;;;;;;;2.45;1.90;;;;;;;24.15;58.58;99954.00;4602747;27;20039;-67
2023/08/26 04:10:05;;;;;;;2.00;1.80;;;;;;;24.17;58.35;99957.31;4612516;27;21004;-66
2023/08/26 04:12:15;;;;;;;1.75;1.65;;;;;;;24.15;58.82;99954.00;4602322;27;20039;-66
2023/08/26 04:14:26;;;;;;;1.73;1.63;;;;;;;24.19;58.84;99945.38;4612987;27;20058;-66
2023/08/26 04:16:36;;;;;;;2.17;1.67;;;;;;;24.14;59.08;99946.59;4619032;27;21094;-66
2023/08/26 04:18:50;;;;;;;1.35;1.20;;;;;;;24.19;59.05;99954.84;4603536;27;20364;-66
2023/08/26 04:21:00;;;;;;;1.45;1.35;;;;;;;24.21;59.08;99963.94;4604436;27;20035;-66
2023/08/26 04:23:12;;;;;;;1.40;1.30;;;;;;;24.19;58.97;99966.38;4612040;27;20770;-66
2023/08/26 04:25:26;;;;;;;1.50;1.40;;;;;;;24.22;59.17;99971.34;4603550;27;20126;-67
2023/08/26 04:27:36;;;;;;;1.55;1.45;;;;;;;24.21;59.71;99974.63;4604060;27;20035;-66
2023/08/26 04:29:46;;;;;;;1.33;1.23;;;;;;;24.25;58.96;99984.09;4604836;27;20031;-66
2023/08/26 04:31:57;;;;;;;5.60;4.28;;;;;;;24.15;59.32;99976.28;4604682;27;20020;-66
2023/08/26 04:34:07;;;;;;;5.00;3.83;;;;;;;24.09;57.49;99990.25;4618157;27;20534;-66
2023/08/26 04:36:18;;;;;;;4.75;3.80;;;;;;;24.08;57.42;99988.59;4604853;27;20024;-66
2023/08/26 04:38:30;;;;;;;4.25;3.30;;;;;;;24.02;56.34;99987.34;4611698;27;20023;-66
2023/08/26 04:40:41;;;;;;;3.55;2.63;;;;;;;24.04;54.94;100005.03;4601770;27;20058;-66
2023/08/26 04:42:55;;;;;;;2.88;2.10;;;;;;;24.01;54.17;100005.84;4605315;27;20065;-66
2023/08/26 04:45:06;;;;;;;2.42;1.75;;;;;;;23.99;52.00;100016.94;4602814;27;20024;-66
2023/08/26 04:47:16;;;;;;;1.98;1.77;;;;;;;23.97;51.14;100022.31;4604653;27;20527;-66
2023/08/26 04:49:26;;;;;;;1.95;1.75;;;;;;;23.96;50.43;100017.72;4609690;27;20075;-66
2023/08/26 04:51:38;;;;;;;2.10;1.90;;;;;;;23.97;50.38;100030.97;4594340;27;20471;-66
2023/08/26 04:53:49;;;;;;;1.90;1.67;;;;;;;23.96;50.22;100031.34;4600965;27;20043;-66
2023/08/26 04:55:59;;;;;;;2.13;1.60;;;;;;;23.96;50.60;100040.00;4603004;27;20042;-67
2023/08/26 04:58:10;;;;;;;1.58;1.48;;;;;;;23.88;50.96;100029.66;4602098;27;20104;-66
2023/08/26 05:00:21;;;;;;;1.95;1.30;;;;;;;23.93;50.25;100044.50;4603222;27;20077;-65
2023/08/26 05:02:31;;;;;;;1.35;1.13;;;;;;;23.90;49.40;100045.28;4603809;27;20047;-66
2023/08/26 05:04:44;;;;;;;1.73;1.30;;;;;;;23.92;50.10;100057.25;4612069;27;20443;-66
2023/08/26 05:06:55;;;;;;;1.40;1.10;;;;;;;23.93;48.53;100056.03;4601960;27;20035;-66
2023/08/26 05:09:05;;;;;;;1.05;0.95;;;;;;;23.89;48.47;100052.31;4602538;27;20085;-66
2023/08/26 05:11:15;;;;;;;1.23;1.00;;;;;;;23.91;48.81;100064.25;4603703;27;20042;-66
2023/08/26 05:13:26;;;;;;;0.90;0.90;;;;;;;23.87;49.01;100062.56;4603386;27;20402;-65
2023/08/26 05:15:37;;;;;;;0.88;0.80;;;;;;;23.90;47.71;100068.34;4609040;27;20047;-66
2023/08/26 05:17:48;;;;;;;1.45;0.80;;;;;;;23.89;47.11;100065.88;4601964;27;20043;-65
2023/08/26 05:19:58;;;;;;;1.17;0.93;;;;;;;23.90;46.71;100079.88;4602264;27;20042;-65
2023/08/26 05:22:09;;;;;;;2.38;0.80;;;;;;;23.86;46.12;100073.28;4618280;27;20070;-66
2023/08/26 05:24:19;;;;;;;1.17;0.70;;;;;;;23.86;45.96;100081.09;4603342;27;20733;-65
2023/08/26 05:26:31;;;;;;;1.23;0.80;;;;;;;23.88;46.64;100090.97;4612044;27;20031;-66
2023/08/26 05:28:41;;;;;;;1.38;0.70;;;;;;;23.86;46.89;100086.88;4616900;27;20909;-66
2023/08/26 05:30:51;;;;;;;1.20;0.70;;;;;;;23.91;47.39;100098.84;4615389;27;20031;-66
2023/08/26 05:33:02;;;;;;;1.05;0.80;;;;;;;23.91;46.57;100098.03;4615773;27;20059;-66
2023/08/26 05:35:13;;;;;;;0.77;0.60;;;;;;;23.90;47.04;100102.94;4614453;27;20116;-66
2023/08/26 05:37:23;;;;;;;0.95;0.82;;;;;;;23.87;47.54;100097.16;4611932;27;20477;-66
2023/08/26 05:39:34;;;;;;;0.60;0.60;;;;;;;23.88;46.44;100090.97;4614543;27;20039;-66
2023/08/26 05:41:44;;;;;;;1.13;0.70;;;;;;;23.86;45.43;100096.34;4605699;27;20023;-66
2023/08/26 05:43:55;;;;;;;0.70;0.70;;;;;;;23.82;46.21;100089.72;4608606;27;20031;-66
2023/08/26 05:46:06;;;;;;;0.70;0.70;;;;;;;23.89;46.67;100107.06;4589643;27;20076;-65
2023/08/26 05:48:17;;;;;;;1.60;0.73;;;;;;;23.76;46.76;100097.09;4606680;27;20694;-66
2023/08/26 05:50:27;;;;;;;1.20;0.80;;;;;;;23.80;45.62;100097.94;4606220;27;20039;-65
2023/08/26 05:52:38;;;;;;;0.75;0.63;;;;;;;23.86;45.30;100107.88;4606727;27;20085;-66
2023/08/26 05:54:48;;;;;;;0.60;0.60;;;;;;;23.87;45.85;100118.16;4606811;27;20061;-66
2023/08/26 05:56:59;;;;;;;1.00;0.60;;;;;;;23.87;45.55;100126.81;4596864;27;20185;-66
2023/08/26 05:59:09;;;;;;;0.70;0.70;;;;;;;23.86;45.99;100128.06;4607618;27;21238;-66
2023/08/26 06:01:20;;;;;;;0.80;0.68;;;;;;;23.89;46.42;100135.06;4596640;27;20058;-66
2023/08/26 06:03:32;;;;;;;0.85;0.60;;;;;;;23.87;46.13;100126.81;4608289;27;20031;-66
2023/08/26 06:05:43;;;;;;;0.60;0.60;;;;;;;23.87;45.48;100132.56;4605405;27;20459;-65
2023/08/26 06:07:53;;;;;;;0.60;0.50;;;;;;;23.84;44.36;100132.53;4613971;27;20602;-66
2023/08/26 06:10:06;;;;;;;0.85;0.50;;;;;;;23.84;45.00;100132.53;4621182;27;20031;-66
2023/08/26 06:12:16;;;;;;;0.40;0.40;;;;;;;23.81;45.52;100142.84;4621718;27;20041;-66
2023/08/26 06:14:27;;;;;;;0.73;0.60;;;;;;;23.86;45.52;100142.47;4605923;27;20032;-65
2023/08/26 06:16:37;;;;;;;1.15;0.60;;;;;;;23.82;46.25;100138.72;4604863;27;20028;-66
2023/08/26 06:18:49;;;;;;;1.00;0.60;;;;;;;23.82;45.91;100140.78;4614299;27;20069;-66
2023/08/26 06:20:59;;;;;;;0.73;0.50;;;;;;;23.88;45.88;100148.63;4610752;27;21320;-66
2023/08/26 06:23:10;;;;;;;0.55;0.50;;;;;;;23.86;45.58;100147.38;4609645;27;20035;-66
2023/08/26 06:25:20;;;;;;;1.38;0.60;;;;;;;23.83;44.40;100140.38;4603808;27;20035;-66
2023/08/26 06:27:31;;;;;;;1.05;0.60;;;;;;;23.87;45.58;100149.03;4607196;27;20472;-66
2023/08/26 06:29:52;;;;;;;0.50;0.50;;;;;;;23.84;44.42;100146.94;4604566;27;20095;-66
2023/08/26 06:32:03;;;;;;;0.70;0.52;;;;;;;23.84;44.29;100147.78;4613679;27;20135;-66
2023/08/26 06:34:17;;;;;;;0.60;0.40;;;;;;;23.81;45.21;100136.22;4589993;27;20134;-66
2023/08/26 06:36:27;;;;;;;0.45;0.45;;;;;;;23.86;44.12;100141.63;4590729;27;20114;-66
2023/08/26 06:38:38;;;;;;;0.70;0.45;;;;;;;23.88;44.60;100150.72;4608940;27;20031;-66
2023/08/26 06:40:55;;;;;;;0.60;0.60;;;;;;;23.86;46.91;100145.34;4589402;27;20130;-66
2023/08/26 06:43:06;;;;;;;0.68;0.52;;;;;;;23.87;45.09;100137.50;4587959;27;20169;-66
2023/08/26 06:45:19;;;;;;;0.40;0.40;;;;;;;23.83;46.63;100128.84;4590760;27;20027;-66
2023/08/26 06:47:30;;;;;;;0.75;0.50;;;;;;;23.87;46.11;100141.22;4611204;27;20828;-66
2023/08/26 06:49:40;;;;;;;0.47;0.40;;;;;;;23.86;46.79;100133.81;4608044;27;20027;-66
2023/08/26 06:51:51;;;;;;;0.45;0.40;;;;;;;23.87;46.00;100138.34;4611094;27;20059;-66
2023/08/26 06:54:01;;;;;;;0.98;0.40;;;;;;;23.86;46.72;100139.56;4606910;27;20126;-66
2023/08/26 06:56:13;;;;;;;0.50;0.35;;;;;;;23.88;46.95;100148.63;4608881;27;20090;-66
2023/08/26 06:58:23;;;;;;;0.50;0.40;;;;;;;23.81;46.05;100137.06;4604359;27;20086;-66
2023/08/26 07:00:34;;;;;;;0.50;0.22;;;;;;;23.82;45.20;100143.66;4606286;27;20120;-66
2023/08/26 07:02:44;;;;;;;0.57;0.30;;;;;;;23.88;45.10;100157.28;4605526;27;20525;-66
2023/08/26 07:04:55;;;;;;;0.65;0.30;;;;;;;23.81;44.18;100142.84;4606122;27;20483;-66
2023/08/26 07:07:05;;;;;;;0.43;0.32;;;;;;;23.87;45.72;100158.53;4608870;27;20043;-67
2023/08/26 07:09:16;;;;;;;0.30;0.28;;;;;;;23.84;45.20;100150.69;4604352;27;20105;-67
2023/08/26 07:11:27;;;;;;;0.20;0.20;;;;;;;23.85;44.91;100152.31;4604099;27;21053;-67
2023/08/26 07:13:37;;;;;;;2.22;0.40;;;;;;;23.80;43.99;100138.28;4606409;27;20031;-66
2023/08/26 07:15:48;;;;;;;0.40;0.40;;;;;;;23.84;44.52;100150.69;4613221;27;20038;-66
2023/08/26 07:17:58;;;;;;;0.43;0.30;;;;;;;23.83;45.51;100154.78;4605316;27;20502;-66
2023/08/26 07:20:10;;;;;;;0.30;0.30;;;;;;;23.83;44.77;100149.03;4604085;27;20373;-66
2023/08/26 07:22:20;;;;;;;1.10;0.45;;;;;;;23.81;45.05;100151.47;4605248;27;20028;-66
2023/08/26 07:24:31;;;;;;;0.45;0.30;;;;;;;23.77;44.65;100144.84;4604733;27;20035;-66
2023/08/26 07:26:41;;;;;;;0.35;0.30;;;;;;;23.82;44.24;100161.75;4605876;27;20027;-66
2023/08/26 07:28:53;;;;;;;0.60;0.50;;;;;;;23.82;43.28;100158.09;4604590;27;20473;-66
2023/08/26 07:31:05;;;;;;;0.80;0.40;;;;;;;23.80;44.78;100155.56;4604592;27;20028;-66
2023/08/26 07:33:15;;;;;;;1.02;0.30;;;;;;;23.81;45.63;100160.13;4603103;27;20035;-67
2023/08/26 07:35:26;;;;;;;1.13;0.43;;;;;;;23.81;44.64;100150.63;4587855;27;20070;-67
2023/08/26 07:37:37;;;;;;;0.95;0.32;;;;;;;23.82;45.29;100155.19;4604104;27;20109;-66
2023/08/26 07:39:49;;;;;;;0.30;0.30;;;;;;;23.78;44.91;100146.53;4604721;27;20065;-66
2023/08/26 07:41:59;;;;;;;0.30;0.30;;;;;;;23.81;45.77;100151.47;4603038;27;20031;-66
2023/08/26 07:44:10;;;;;;;0.47;0.30;;;;;;;23.82;45.84;100144.47;4595879;27;20488;-66
2023/08/26 07:46:22;;;;;;;0.70;0.30;;;;;;;23.82;45.56;100153.13;4604516;27;20081;-66
2023/08/26 07:48:33;;;;;;;0.82;0.40;;;;;;;23.82;45.31;100147.34;4604969;27;20040;-66
2023/08/26 07:50:43;;;;;;;0.50;0.30;;;;;;;23.81;45.18;100151.47;4602516;27;20023;-68
2023/08/26 07:52:54;;;;;;;0.30;0.30;;;;;;;23.80;44.85;100149.81;4601458;27;20054;-66
2023/08/26 07:55:05;;;;;;;0.35;0.32;;;;;;;23.81;45.03;100154.34;4603728;27;20036;-66
2023/08/26 07:57:16;;;;;;;1.30;0.47;;;;;;;23.82;45.13;100149.44;4604394;27;20103;-66
2023/08/26 07:59:26;;;;;;;0.60;0.40;;;;;;;23.78;44.97;100152.28;4603032;27;20648;-68
2023/08/26 08:01:36;;;;;;;0.75;0.40;;;;;;;23.79;44.39;100158.84;4604027;27;20506;-66
2023/08/26 08:03:47;;;;;;;1.52;0.50;;;;;;;23.77;44.48;100156.38;4603586;27;20039;-66
2023/08/26 08:05:57;;;;;;;0.52;0.30;;;;;;;23.79;44.00;100142.41;4604780;27;20110;-66
2023/08/26 08:08:08;;;;;;;0.65;0.40;;;;;;;23.81;44.15;100150.63;4609745;27;20072;-66
2023/08/26 08:10:18;;;;;;;1.38;0.52;;;;;;;23.80;44.33;100146.91;4602607;27;20031;-66
2023/08/26 08:12:29;;;;;;;0.88;0.40;;;;;;;23.80;43.23;100151.88;4605140;27;20038;-66
2023/08/26 08:14:39;;;;;;;0.95;0.40;;;;;;;23.76;43.34;100142.38;4603998;27;20492;-66
2023/08/26 08:16:50;;;;;;;0.52;0.40;;;;;;;23.78;43.72;100140.75;4604009;27;20042;-66
2023/08/26 08:19:00;;;;;;;0.52;0.30;;;;;;;23.77;43.00;100141.97;4590086;27;20035;-66
2023/08/26 08:21:10;;;;;;;0.88;0.35;;;;;;;23.79;42.85;100151.03;4602566;27;20019;-67
2023/08/26 08:23:21;;;;;;;0.90;0.50;;;;;;;23.77;42.20;100150.59;4604448;27;20042;-66
2023/08/26 08:25:32;;;;;;;0.75;0.40;;;;;;;23.78;42.16;100152.28;4604389;27;20465;-67
2023/08/26 08:27:42;;;;;;;0.47;0.30;;;;;;;23.77;42.17;100144.84;4587522;27;20457;-67
2023/08/26 08:29:53;;;;;;;0.40;0.40;;;;;;;23.76;42.64;100148.97;4601967;27;20035;-66
2023/08/26 08:32:03;;;;;;;0.40;0.40;;;;;;;23.78;42.78;100152.28;4607100;27;20074;-67
2023/08/26 08:34:13;;;;;;;0.30;0.30;;;;;;;23.71;42.47;100134.09;4604721;27;20054;-66
2023/08/26 08:36:24;;;;;;;0.20;0.20;;;;;;;23.77;42.69;100156.38;4602641;27;20059;-66
2023/08/26 08:38:34;;;;;;;1.60;0.50;;;;;;;23.72;42.77;100141.53;4603168;27;20046;-66
2023/08/26 08:40:45;;;;;;;0.30;0.28;;;;;;;23.73;43.44;100141.13;4602240;27;20032;-67
2023/08/26 08:42:58;;;;;;;0.40;0.30;;;;;;;23.73;43.01;100141.13;4603673;27;20073;-66
2023/08/26 08:45:10;;;;;;;0.85;0.35;;;;;;;23.76;42.74;100142.38;4603748;27;20036;-66
2023/08/26 08:47:21;;;;;;;0.60;0.32;;;;;;;23.77;43.23;100147.72;4603387;27;20043;-67
2023/08/26 08:49:36;;;;;;;1.33;0.40;;;;;;;23.77;43.18;100144.84;4600675;27;20040;-66
2023/08/26 08:51:48;;;;;;;0.60;0.35;;;;;;;23.79;43.47;100148.16;4602510;27;20879;-67
2023/08/26 08:54:00;;;;;;;0.93;0.40;;;;;;;23.64;43.89;100132.81;4613499;27;20027;-66
2023/08/26 08:56:15;;;;;;;0.75;0.40;;;;;;;23.74;43.85;100141.97;4603738;27;20039;-66
2023/08/26 08:58:25;;;;;;;1.10;0.40;;;;;;;23.76;43.66;100151.00;4604475;27;20602;-64
2023/08/26 09:00:36;;;;;;;0.43;0.40;;;;;;;23.72;44.63;100153.88;4603972;27;20032;-66
2023/08/26 09:02:49;;;;;;;0.70;0.30;;;;;;;23.70;45.43;100149.72;4605941;27;20032;-65
2023/08/26 09:04:59;;;;;;;0.63;0.30;;;;;;;23.61;45.69;100150.88;4607254;27;20031;-65
2023/08/26 09:07:12;;;;;;;0.45;0.35;;;;;;;23.59;44.99;100161.19;4607793;27;20024;-65
2023/08/26 09:09:22;;;;;;;0.50;0.40;;;;;;;23.53;45.99;100159.91;4605231;27;20767;-64
2023/08/26 09:11:33;;;;;;;0.40;0.38;;;;;;;23.51;46.94;100159.47;4607752;27;20034;-64
2023/08/26 09:13:45;;;;;;;1.05;0.40;;;;;;;23.48;46.74;100169.69;4606033;27;20069;-66
2023/08/26 09:15:56;;;;;;;0.43;0.40;;;;;;;23.46;45.29;100151.16;4606217;27;20114;-68
2023/08/26 09:18:12;;;;;;;0.73;0.40;;;;;;;23.48;44.42;100157.38;4614201;27;20122;-67
2023/08/26 09:20:22;;;;;;;0.73;0.47;;;;;;;23.41;44.10;100142.88;4606583;27;20015;-66
2023/08/26 09:22:33;;;;;;;0.63;0.40;;;;;;;23.38;43.75;100143.69;4605816;27;20040;-66
2023/08/26 09:24:43;;;;;;;0.40;0.40;;;;;;;23.50;44.30;100152.84;4606552;27;20093;-66
2023/08/26 09:27:01;;;;;;;0.30;0.30;;;;;;;23.54;44.42;100159.50;4605857;27;20788;-66
2023/08/26 09:29:17;;;;;;;0.40;0.40;;;;;;;23.56;43.25;100167.72;4605521;27;20032;-66
2023/08/26 09:31:28;;;;;;;;;;;;;;;23.57;43.85;100170.22;4606629;27;20954;-63
2023/08/26 09:33:38;;;;;;;0.40;0.40;;;;;;;23.58;43.94;100176.78;4607630;27;19985;-66
2023/08/26 09:35:49;;;;;;;0.40;0.30;;;;;;;23.58;44.03;100162.38;4604299;27;20059;-67
2023/08/26 09:37:59;;;;;;;0.55;0.40;;;;;;;23.58;43.51;100173.91;4605440;27;20031;-66
2023/08/26 09:40:17;;;;;;;0.30;0.30;;;;;;;23.60;43.50;100169.41;4606513;27;20047;-66
2023/08/26 09:42:30;;;;;;;0.52;0.40;;;;;;;23.60;43.75;100169.41;4605557;27;20474;-66
2023/08/26 09:44:41;;;;;;;0.40;0.30;;;;;;;23.60;44.79;100162.81;4608066;27;20067;-66
2023/08/26 09:46:55;;;;;;;0.40;0.32;;;;;;;23.56;44.09;100153.34;4606127;27;20031;-67
2023/08/26 09:49:06;;;;;;;0.60;0.40;;;;;;;23.58;43.99;100154.56;4606485;27;20114;-67
2023/08/26 09:51:27;;;;;;;0.38;0.30;;;;;;;23.57;43.49;100158.69;4606607;27;20106;-66
2023/08/26 09:53:41;;;;;;;0.55;0.40;;;;;;;23.55;43.12;100148.78;4605811;27;20043;-67
2023/08/26 09:55:52;;;;;;;0.38;0.35;;;;;;;23.60;43.04;100162.81;4605059;27;20038;-70
2023/08/26 09:58:03;;;;;;;0.68;0.40;;;;;;;23.61;42.94;100159.53;4606109;27;20794;-67
2023/08/26 10:00:16;;;;;;;0.43;0.43;;;;;;;23.63;43.43;100162.84;4607304;27;20134;-67
2023/08/26 10:02:30;;;;;;;0.40;0.40;;;;;;;23.63;43.43;100164.09;4605226;27;20093;-67
2023/08/26 10:04:44;;;;;;;0.60;0.30;;;;;;;23.56;42.89;100159.09;4605858;27;20594;-66
2023/08/26 10:06:59;;;;;;;0.77;0.40;;;;;;;23.61;43.44;100162.41;4606359;27;21543;-66
2023/08/26 10:09:36;;;;;;;0.63;0.40;;;;;;;23.63;42.68;100157.09;4605872;27;20602;-66
2023/08/26 10:11:50;;;;;;;0.65;0.45;;;;;;;23.59;42.19;100149.66;4605168;27;20042;-66
2023/08/26 10:14:01;;;;;;;1.23;0.35;;;;;;;23.62;42.71;100154.63;4606048;27;20090;-67
2023/08/26 10:16:14;;;;;;;0.70;0.52;;;;;;;23.64;43.10;100160.81;4603776;27;20127;-66